createdAt,value
2019-03-30T00:01:43.567Z,99.90
2019-03-30T00:04:13.321Z,99.90
2019-03-30T00:06:43.052Z,99.90
2019-03-30T00:09:13.021Z,99.90
2019-03-30T00:11:42.906Z,99.90
2019-03-30T00:14:12.719Z,99.90
2019-03-30T00:16:42.476Z,99.90
2019-03-30T00:19:12.215Z,99.90
2019-03-30T00:21:42.056Z,99.90
2019-03-30T00:24:11.720Z,99.90
2019-03-30T00:26:41.471Z,99.90
2019-03-30T00:29:11.253Z,99.90
2019-03-30T00:31:40.997Z,99.90
2019-03-30T00:34:10.822Z,99.90
2019-03-30T00:36:40.576Z,99.90
2019-03-30T00:39:10.352Z,99.90
2019-03-30T00:41:40.119Z,99.90
2019-03-30T00:44:09.859Z,99.90
2019-03-30T00:46:39.624Z,99.90
2019-03-30T00:49:09.440Z,99.90
2019-03-30T00:51:39.235Z,99.90
2019-03-30T00:54:08.980Z,99.90
2019-03-30T00:56:38.751Z,99.90
2019-03-30T00:59:08.519Z,99.90
2019-03-30T01:01:38.256Z,99.90
2019-03-30T01:04:08.041Z,99.90
2019-03-30T01:06:37.791Z,99.90
2019-03-30T01:09:08.625Z,99.90
2019-03-30T01:11:38.376Z,99.90
2019-03-30T01:14:08.148Z,99.90
2019-03-30T01:16:37.902Z,99.90
2019-03-30T01:19:07.660Z,99.90
2019-03-30T01:21:37.427Z,99.90
2019-03-30T01:24:07.147Z,99.90
2019-03-30T01:26:36.920Z,99.90
2019-03-30T01:29:06.682Z,99.90
2019-03-30T01:31:36.454Z,99.90
2019-03-30T01:34:06.207Z,99.90
2019-03-30T01:36:35.956Z,99.90
2019-03-30T01:39:07.372Z,99.90
2019-03-30T01:41:37.103Z,99.90
2019-03-30T01:44:06.871Z,99.90
2019-03-30T01:46:36.620Z,99.90
2019-03-30T01:49:06.380Z,99.90
2019-03-30T01:51:36.146Z,99.90
2019-03-30T01:54:05.933Z,99.90
2019-03-30T01:56:35.686Z,99.90
2019-03-30T01:59:05.410Z,99.90
2019-03-30T02:01:35.187Z,99.90
2019-03-30T02:04:04.925Z,99.90
2019-03-30T02:06:34.779Z,99.90
2019-03-30T02:09:05.819Z,99.90
2019-03-30T02:11:35.645Z,99.90
2019-03-30T02:14:05.624Z,99.90
2019-03-30T02:16:35.369Z,99.90
2019-03-30T02:19:05.142Z,99.90
2019-03-30T02:21:34.837Z,99.90
2019-03-30T02:24:04.583Z,99.90
2019-03-30T02:26:34.313Z,99.90
2019-03-30T02:29:04.169Z,99.90
2019-03-30T02:31:33.916Z,99.90
2019-03-30T02:34:03.700Z,99.90
2019-03-30T02:36:33.530Z,99.90
2019-03-30T02:39:04.570Z,99.90
2019-03-30T02:41:34.307Z,99.90
2019-03-30T02:44:04.071Z,99.90
2019-03-30T02:46:33.805Z,99.90
2019-03-30T02:49:03.572Z,99.90
2019-03-30T02:51:33.357Z,99.90
2019-03-30T02:54:03.103Z,99.90
2019-03-30T02:56:32.870Z,99.90
2019-03-30T02:59:03.225Z,99.90
2019-03-30T03:01:33.003Z,99.90
2019-03-30T03:04:02.707Z,99.90
2019-03-30T03:06:32.459Z,99.90
2019-03-30T03:09:02.277Z,99.90
2019-03-30T03:11:32.037Z,99.90
2019-03-30T03:14:01.765Z,99.90
2019-03-30T03:16:31.560Z,99.90
2019-03-30T03:19:01.264Z,99.90
2019-03-30T03:21:31.004Z,99.90
2019-03-30T03:24:00.735Z,99.90
2019-03-30T03:26:30.499Z,99.90
2019-03-30T03:29:00.256Z,99.90
2019-03-30T03:31:29.980Z,99.90
2019-03-30T03:33:59.772Z,99.90
2019-03-30T03:36:29.502Z,99.90
2019-03-30T03:38:59.205Z,99.90
2019-03-30T03:41:28.956Z,99.90
2019-03-30T03:43:58.725Z,99.90
2019-03-30T03:46:28.450Z,99.90
2019-03-30T03:48:58.194Z,99.90
2019-03-30T03:51:28.759Z,99.90
2019-03-30T03:53:58.504Z,99.90
2019-03-30T03:56:29.928Z,99.90
2019-03-30T03:59:01.925Z,99.90
2019-03-30T04:01:33.938Z,99.90
2019-03-30T04:04:05.846Z,99.90
2019-03-30T04:06:37.060Z,99.90
2019-03-30T04:09:07.666Z,99.90
2019-03-30T04:11:40.256Z,99.90
2019-03-30T04:14:12.645Z,99.90
2019-03-30T04:16:42.398Z,99.90
2019-03-30T04:19:12.140Z,99.90
2019-03-30T04:21:44.194Z,99.90
2019-03-30T04:24:13.287Z,99.90
2019-03-30T04:26:43.033Z,99.90
2019-03-30T04:29:12.789Z,99.90
2019-03-30T04:31:42.523Z,99.90
2019-03-30T04:34:12.266Z,99.90
2019-03-30T04:36:41.992Z,99.90
2019-03-30T04:39:11.816Z,99.90
2019-03-30T04:41:41.553Z,99.90
2019-03-30T04:44:11.282Z,99.90
2019-03-30T04:46:41.036Z,99.90
2019-03-30T04:49:10.750Z,99.90
2019-03-30T04:51:40.563Z,99.90
2019-03-30T04:54:10.315Z,99.90
2019-03-30T04:56:40.070Z,99.90
2019-03-30T04:59:09.783Z,99.90
2019-03-30T05:01:39.552Z,99.90
2019-03-30T05:04:09.260Z,99.90
2019-03-30T05:06:39.049Z,99.90
2019-03-30T05:09:08.803Z,99.90
2019-03-30T05:11:38.514Z,99.90
2019-03-30T05:14:08.244Z,99.90
2019-03-30T05:16:37.971Z,99.90
2019-03-30T05:19:07.726Z,99.90
2019-03-30T05:21:37.466Z,99.90
2019-03-30T05:24:07.211Z,99.90
2019-03-30T05:26:36.951Z,99.90
2019-03-30T05:29:06.786Z,99.90
2019-03-30T05:31:36.535Z,99.90
2019-03-30T05:34:06.324Z,99.90
2019-03-30T05:36:36.062Z,99.90
2019-03-30T05:39:06.511Z,99.90
2019-03-30T05:41:36.266Z,99.90
2019-03-30T05:44:05.995Z,99.90
2019-03-30T05:46:35.736Z,99.90
2019-03-30T05:49:05.468Z,99.90
2019-03-30T05:51:35.219Z,99.90
2019-03-30T05:54:04.946Z,99.90
2019-03-30T05:56:34.689Z,99.90
2019-03-30T05:59:04.411Z,99.90
2019-03-30T06:01:34.239Z,99.90
2019-03-30T06:04:03.974Z,99.90
2019-03-30T06:06:33.742Z,99.90
2019-03-30T06:09:04.359Z,99.90
2019-03-30T06:11:34.092Z,99.90
2019-03-30T06:14:03.852Z,99.90
2019-03-30T06:16:33.594Z,99.90
2019-03-30T06:19:03.434Z,99.90
2019-03-30T06:21:33.196Z,99.90
2019-03-30T06:24:03.066Z,99.90
2019-03-30T06:26:32.796Z,99.90
2019-03-30T06:29:02.575Z,99.90
2019-03-30T06:31:32.304Z,99.90
2019-03-30T06:34:02.033Z,99.90
2019-03-30T06:36:31.836Z,99.90
2019-03-30T06:39:01.561Z,99.90
2019-03-30T06:41:31.307Z,99.90
2019-03-30T06:44:01.020Z,99.90
2019-03-30T06:46:30.770Z,99.90
2019-03-30T06:49:00.568Z,99.90
2019-03-30T06:51:30.246Z,99.90
2019-03-30T06:53:59.899Z,99.90
2019-03-30T06:56:29.651Z,99.90
2019-03-30T06:58:59.373Z,99.90
2019-03-30T07:01:29.616Z,99.90
2019-03-30T07:03:59.355Z,99.90
2019-03-30T07:06:30.239Z,99.90
2019-03-30T07:09:02.466Z,99.90
2019-03-30T07:11:35.439Z,99.90
2019-03-30T07:14:05.306Z,99.90
2019-03-30T07:16:37.020Z,99.90
2019-03-30T07:19:07.320Z,99.90
2019-03-30T07:21:37.001Z,99.90
2019-03-30T07:24:06.751Z,99.90
2019-03-30T07:26:36.495Z,99.90
2019-03-30T07:29:06.259Z,99.90
2019-03-30T07:31:35.991Z,99.90
2019-03-30T07:34:05.771Z,99.90
2019-03-30T07:36:35.630Z,99.90
2019-03-30T07:39:06.706Z,99.90
2019-03-30T07:41:36.437Z,99.90
2019-03-30T07:44:06.187Z,99.90
2019-03-30T07:46:35.932Z,99.90
2019-03-30T07:49:05.653Z,99.90
2019-03-30T07:51:35.444Z,99.90
2019-03-30T07:54:05.194Z,98.50
2019-03-30T07:56:34.959Z,98.30
2019-03-30T07:59:04.704Z,97.70
2019-03-30T08:01:34.493Z,96.80
2019-03-30T08:04:04.253Z,95.70
2019-03-30T08:06:33.996Z,95.40
2019-03-30T08:09:04.608Z,94.80
2019-03-30T08:11:34.341Z,93.90
2019-03-30T08:14:04.135Z,93.10
2019-03-30T08:16:33.856Z,92.20
2019-03-30T08:19:03.690Z,90.70
2019-03-30T08:21:33.515Z,89.30
2019-03-30T08:24:03.255Z,89.90
2019-03-30T08:26:35.654Z,89.00
2019-03-30T08:29:04.406Z,84.90
2019-03-30T08:31:34.363Z,85.70
2019-03-30T08:34:04.198Z,84.90
2019-03-30T08:36:34.019Z,87.00
2019-03-30T08:39:04.861Z,88.80
2019-03-30T08:41:34.607Z,85.90
2019-03-30T08:44:04.284Z,83.30
2019-03-30T08:46:34.051Z,80.50
2019-03-30T08:49:03.843Z,78.80
2019-03-30T08:51:33.605Z,74.90
2019-03-30T08:54:03.421Z,72.40
2019-03-30T08:56:33.156Z,72.90
2019-03-30T08:59:02.883Z,72.90
2019-03-30T09:01:32.736Z,72.40
2019-03-30T09:04:02.479Z,72.40
2019-03-30T09:06:32.244Z,71.00
2019-03-30T09:09:02.077Z,68.90
2019-03-30T09:11:31.838Z,68.30
2019-03-30T09:14:01.587Z,70.10
2019-03-30T09:16:31.351Z,69.80
2019-03-30T09:19:01.088Z,72.90
2019-03-30T09:21:30.864Z,73.30
2019-03-30T09:24:09.362Z,71.00
2019-03-30T09:26:32.041Z,71.00
2019-03-30T09:29:01.765Z,68.80
2019-03-30T09:31:31.543Z,69.90
2019-03-30T09:34:01.215Z,72.40
2019-03-30T09:36:30.979Z,74.40
2019-03-30T09:39:00.727Z,76.40
2019-03-30T09:41:30.467Z,78.60
2019-03-30T09:44:00.219Z,82.30
2019-03-30T09:46:29.959Z,86.40
2019-03-30T09:48:59.739Z,88.90
2019-03-30T09:51:29.538Z,88.70
2019-03-30T09:53:59.479Z,88.60
2019-03-30T09:56:29.224Z,87.60
2019-03-30T09:58:58.988Z,86.80
2019-03-30T10:01:28.847Z,84.10
2019-03-30T10:03:58.630Z,85.60
2019-03-30T10:06:34.392Z,85.60
2019-03-30T10:08:59.791Z,84.50
2019-03-30T10:11:29.558Z,82.10
2019-03-30T10:13:59.294Z,80.70
2019-03-30T10:16:29.048Z,79.60
2019-03-30T10:18:58.795Z,77.50
2019-03-30T10:21:28.669Z,71.60
2019-03-30T10:23:58.419Z,67.70
2019-03-30T10:26:28.202Z,61.60
2019-03-30T10:28:58.104Z,61.50
2019-03-30T10:31:27.927Z,61.40
2019-03-30T10:33:57.652Z,60.50
2019-03-30T10:36:27.407Z,60.40
2019-03-30T10:38:57.155Z,61.60
2019-03-30T10:41:26.931Z,60.40
2019-03-30T10:43:56.676Z,60.40
2019-03-30T10:46:26.425Z,58.60
2019-03-30T10:48:56.488Z,58.30
2019-03-30T10:51:26.192Z,57.30
2019-03-30T10:53:55.991Z,55.00
2019-03-30T10:56:25.873Z,54.40
2019-03-30T10:58:55.639Z,54.90
2019-03-30T11:01:25.495Z,54.00
2019-03-30T11:03:55.256Z,52.70
2019-03-30T11:06:25.047Z,54.20
2019-03-30T11:08:54.828Z,54.00
2019-03-30T11:11:24.721Z,54.90
2019-03-30T11:13:54.551Z,55.60
2019-03-30T11:16:24.306Z,55.80
2019-03-30T11:18:54.184Z,54.90
2019-03-30T11:21:23.927Z,53.60
2019-03-30T11:23:53.659Z,54.40
2019-03-30T11:26:23.427Z,55.30
2019-03-30T11:28:53.215Z,55.90
2019-03-30T11:31:22.967Z,55.40
2019-03-30T11:33:52.636Z,54.80
2019-03-30T11:36:22.406Z,55.00
2019-03-30T11:38:52.163Z,55.00
2019-03-30T11:41:24.839Z,53.30
2019-03-30T11:43:53.308Z,53.50
2019-03-30T11:46:23.073Z,53.10
2019-03-30T11:48:52.897Z,51.30
2019-03-30T11:51:22.668Z,51.70
2019-03-30T11:53:52.379Z,50.70
2019-03-30T11:56:22.143Z,52.40
2019-03-30T11:58:51.906Z,51.90
2019-03-30T12:01:22.023Z,53.10
2019-03-30T12:03:51.845Z,54.50
2019-03-30T12:06:21.605Z,56.10
2019-03-30T12:08:51.351Z,56.80
2019-03-30T12:11:21.096Z,56.80
2019-03-30T12:13:50.840Z,56.40
2019-03-30T12:16:20.578Z,55.40
2019-03-30T12:18:51.294Z,54.70
2019-03-30T12:21:21.075Z,55.40
2019-03-30T12:23:52.126Z,54.50
2019-03-30T12:26:22.285Z,53.00
2019-03-30T12:28:52.122Z,53.50
2019-03-30T12:31:21.880Z,53.60
2019-03-30T12:33:51.639Z,53.00
2019-03-30T12:36:21.391Z,51.40
2019-03-30T12:38:51.230Z,49.50
2019-03-30T12:41:20.963Z,50.00
2019-03-30T12:43:51.223Z,50.50
2019-03-30T12:46:20.960Z,50.90
2019-03-30T12:48:50.747Z,50.10
2019-03-30T12:51:20.487Z,49.30
2019-03-30T12:53:50.815Z,48.10
2019-03-30T12:56:20.663Z,47.30
2019-03-30T12:58:50.508Z,48.00
2019-03-30T13:01:20.272Z,49.40
2019-03-30T13:03:50.057Z,50.70
2019-03-30T13:06:19.778Z,50.80
2019-03-30T13:08:49.546Z,51.90
2019-03-30T13:11:19.288Z,50.00
2019-03-30T13:13:49.060Z,48.10
2019-03-30T13:16:18.816Z,47.20
2019-03-30T13:18:48.559Z,47.00
2019-03-30T13:21:18.312Z,47.00
2019-03-30T13:23:48.086Z,47.50
2019-03-30T13:26:17.828Z,46.80
2019-03-30T13:28:47.588Z,45.70
2019-03-30T13:31:17.319Z,45.60
2019-03-30T13:33:47.120Z,44.90
2019-03-30T13:36:18.375Z,45.00
2019-03-30T13:38:48.110Z,43.40
2019-03-30T13:41:17.833Z,43.90
2019-03-30T13:43:47.636Z,44.20
2019-03-30T13:46:17.355Z,43.10
2019-03-30T13:48:47.136Z,42.30
2019-03-30T13:51:16.876Z,41.00
2019-03-30T13:53:46.686Z,42.90
2019-03-30T13:56:17.632Z,43.10
2019-03-30T13:58:47.567Z,44.20
2019-03-30T14:01:17.304Z,45.20
2019-03-30T14:03:47.060Z,45.10
2019-03-30T14:06:16.805Z,43.80
2019-03-30T14:08:46.570Z,43.90
2019-03-30T14:11:16.318Z,44.30
2019-03-30T14:13:46.092Z,43.60
2019-03-30T14:16:15.814Z,43.30
2019-03-30T14:18:45.608Z,44.40
2019-03-30T14:21:15.354Z,44.80
2019-03-30T14:23:45.110Z,44.30
2019-03-30T14:26:14.859Z,45.70
2019-03-30T14:28:44.615Z,46.10
2019-03-30T14:31:14.363Z,46.00
2019-03-30T14:33:44.176Z,46.40
2019-03-30T14:36:13.947Z,46.50
2019-03-30T14:38:43.790Z,46.90
2019-03-30T14:41:13.535Z,47.20
2019-03-30T14:43:43.343Z,45.40
2019-03-30T14:46:13.009Z,46.30
2019-03-30T14:48:42.795Z,45.90
2019-03-30T14:51:12.543Z,46.90
2019-03-30T14:53:42.303Z,47.60
2019-03-30T14:56:12.030Z,47.40
2019-03-30T14:58:41.777Z,45.40
2019-03-30T15:01:11.539Z,45.20
2019-03-30T15:03:41.323Z,45.20
2019-03-30T15:06:11.063Z,44.30
2019-03-30T15:08:40.883Z,44.50
2019-03-30T15:11:10.559Z,45.40
2019-03-30T15:13:40.492Z,46.30
2019-03-30T15:16:10.231Z,46.60
2019-03-30T15:18:43.050Z,48.00
2019-03-30T15:21:12.807Z,49.20
2019-03-30T15:23:42.559Z,49.20
2019-03-30T15:26:12.288Z,49.70
2019-03-30T15:28:42.919Z,50.30
2019-03-30T15:31:12.931Z,50.40
2019-03-30T15:33:42.698Z,48.00
2019-03-30T15:36:12.456Z,47.60
2019-03-30T15:38:42.243Z,48.80
2019-03-30T15:41:11.951Z,49.40
2019-03-30T15:43:41.726Z,48.80
2019-03-30T15:46:14.286Z,48.10
2019-03-30T15:48:42.916Z,48.40
2019-03-30T15:51:12.639Z,48.40
2019-03-30T15:53:42.491Z,48.10
2019-03-30T15:56:12.242Z,48.60
2019-03-30T15:58:42.007Z,48.90
2019-03-30T16:01:11.814Z,49.80
2019-03-30T16:03:41.656Z,50.10
2019-03-30T16:06:11.405Z,50.60
2019-03-30T16:08:41.152Z,50.60
2019-03-30T16:11:10.876Z,51.40
2019-03-30T16:13:40.638Z,52.50
2019-03-30T16:16:10.655Z,52.50
2019-03-30T16:18:41.003Z,53.00
2019-03-30T16:21:11.858Z,53.50
2019-03-30T16:23:42.667Z,53.90
2019-03-30T16:26:13.251Z,54.80
2019-03-30T16:28:43.302Z,55.20
2019-03-30T16:31:13.624Z,55.60
2019-03-30T16:33:46.705Z,56.50
2019-03-30T16:36:16.365Z,57.20
2019-03-30T16:38:46.833Z,57.70
2019-03-30T16:41:17.228Z,58.30
2019-03-30T16:43:47.873Z,59.10
2019-03-30T16:46:18.443Z,59.00
2019-03-30T16:48:49.260Z,59.50
2019-03-30T16:51:19.732Z,60.40
2019-03-30T16:53:50.416Z,60.60
2019-03-30T16:56:20.558Z,60.90
2019-03-30T16:58:50.750Z,61.80
2019-03-30T17:01:21.194Z,62.30
2019-03-30T17:03:51.598Z,63.20
2019-03-30T17:06:22.315Z,64.20
2019-03-30T17:08:52.794Z,64.40
2019-03-30T17:11:22.970Z,67.70
2019-03-30T17:13:53.391Z,74.10
2019-03-30T17:16:23.936Z,81.50
2019-03-30T17:18:55.067Z,88.80
2019-03-30T17:21:25.699Z,92.20
2019-03-30T17:23:56.035Z,94.30
2019-03-30T17:26:26.360Z,95.90
2019-03-30T17:28:56.467Z,97.10
2019-03-30T17:31:26.636Z,98.10
2019-03-30T17:33:56.490Z,98.60
2019-03-30T17:36:26.624Z,99.00
2019-03-30T17:38:56.781Z,99.40
2019-03-30T17:41:27.495Z,99.80
2019-03-30T17:43:58.007Z,99.90
2019-03-30T17:46:28.154Z,99.90
2019-03-30T17:48:58.183Z,99.90
2019-03-30T17:51:28.492Z,99.90
2019-03-30T17:53:59.175Z,99.90
2019-03-30T17:56:29.483Z,99.90
2019-03-30T17:58:59.733Z,99.90
2019-03-30T18:01:30.066Z,99.90
2019-03-30T18:04:00.391Z,99.90
2019-03-30T18:06:31.354Z,99.90
2019-03-30T18:09:01.979Z,99.90
2019-03-30T18:11:32.561Z,99.90
2019-03-30T18:14:02.987Z,99.90
2019-03-30T18:16:32.807Z,99.90
2019-03-30T18:19:02.599Z,99.90
2019-03-30T18:21:32.367Z,99.90
2019-03-30T18:24:02.105Z,99.90
2019-03-30T18:26:31.848Z,99.90
2019-03-30T18:29:01.633Z,99.90
2019-03-30T18:31:31.407Z,99.90
2019-03-30T18:34:01.131Z,99.90
2019-03-30T18:36:31.726Z,99.90
2019-03-30T18:39:09.511Z,99.90
2019-03-30T18:41:33.690Z,99.90
2019-03-30T18:44:03.752Z,99.90
2019-03-30T18:46:33.490Z,99.90
2019-03-30T18:49:03.239Z,99.90
2019-03-30T18:51:33.378Z,99.90
2019-03-30T18:54:03.652Z,99.90
2019-03-30T18:56:33.376Z,99.90
2019-03-30T18:59:03.132Z,99.90
2019-03-30T19:01:32.863Z,99.90
2019-03-30T19:04:02.620Z,99.90
2019-03-30T19:06:32.336Z,99.90
2019-03-30T19:09:02.111Z,99.90
2019-03-30T19:11:31.854Z,99.90
2019-03-30T19:14:01.607Z,99.90
2019-03-30T19:16:31.336Z,99.90
2019-03-30T19:19:01.160Z,99.90
2019-03-30T19:21:30.911Z,99.90
2019-03-30T19:24:00.848Z,99.90
2019-03-30T19:26:30.594Z,99.90
2019-03-30T19:29:00.282Z,99.90
2019-03-30T19:31:30.035Z,99.90
2019-03-30T19:33:59.794Z,99.90
2019-03-30T19:36:29.567Z,99.90
2019-03-30T19:38:59.304Z,99.90
2019-03-30T19:41:29.071Z,99.90
2019-03-30T19:43:58.808Z,99.90
2019-03-30T19:46:28.589Z,99.90
2019-03-30T19:48:58.296Z,99.90
2019-03-30T19:51:28.240Z,99.90
2019-03-30T19:54:00.001Z,99.90
2019-03-30T19:56:29.491Z,99.90
2019-03-30T19:59:10.061Z,99.90
2019-03-30T20:01:30.696Z,99.90
2019-03-30T20:04:00.427Z,99.90
2019-03-30T20:06:30.207Z,99.90
2019-03-30T20:08:59.978Z,99.90
2019-03-30T20:11:29.706Z,99.90
2019-03-30T20:13:59.463Z,99.90
2019-03-30T20:16:29.211Z,99.90
2019-03-30T20:19:11.380Z,99.90
2019-03-30T20:21:30.376Z,99.90
2019-03-30T20:24:00.160Z,99.90
2019-03-30T20:26:29.875Z,99.90
2019-03-30T20:28:59.618Z,99.90
2019-03-30T20:31:30.138Z,99.90
2019-03-30T20:33:59.863Z,99.90
2019-03-30T20:36:29.624Z,99.90
2019-03-30T20:38:59.380Z,99.90
2019-03-30T20:41:29.123Z,99.90
2019-03-30T20:43:58.940Z,99.90
2019-03-30T20:46:28.792Z,99.90
2019-03-30T20:48:58.558Z,99.90
2019-03-30T20:51:28.349Z,99.90
2019-03-30T20:53:58.092Z,99.90
2019-03-30T20:56:27.749Z,99.90
2019-03-30T20:58:57.486Z,99.90
2019-03-30T21:01:27.335Z,99.90
2019-03-30T21:03:57.095Z,99.90
2019-03-30T21:06:26.835Z,99.90
2019-03-30T21:08:56.575Z,99.90
2019-03-30T21:11:26.240Z,99.90
2019-03-30T21:13:56.832Z,99.90
2019-03-30T21:16:26.867Z,99.90
2019-03-30T21:18:56.592Z,99.90
2019-03-30T21:21:26.345Z,99.90
2019-03-30T21:23:56.176Z,99.90
2019-03-30T21:26:28.502Z,99.90
2019-03-30T21:28:57.338Z,99.90
2019-03-30T21:31:27.095Z,99.90
2019-03-30T21:33:56.799Z,99.90
2019-03-30T21:36:26.743Z,99.90
2019-03-30T21:38:56.495Z,99.90
2019-03-30T21:41:26.234Z,99.90
2019-03-30T21:43:56.075Z,99.90
2019-03-30T21:46:25.847Z,99.90
2019-03-30T21:48:55.602Z,99.90
2019-03-30T21:51:25.659Z,99.90
2019-03-30T21:53:55.412Z,99.90
2019-03-30T21:56:25.179Z,99.90
2019-03-30T21:58:54.909Z,99.90
2019-03-30T22:01:24.652Z,99.90
2019-03-30T22:03:54.391Z,99.90
2019-03-30T22:06:24.127Z,99.90
2019-03-30T22:08:54.639Z,99.90
2019-03-30T22:11:24.395Z,99.90
2019-03-30T22:13:54.199Z,99.90
2019-03-30T22:16:23.949Z,99.90
2019-03-30T22:18:53.680Z,99.90
2019-03-30T22:21:23.454Z,99.90
2019-03-30T22:23:53.894Z,99.90
2019-03-30T22:26:24.894Z,99.90
2019-03-30T22:28:54.763Z,99.90
2019-03-30T22:31:24.503Z,99.90
2019-03-30T22:33:54.264Z,99.90
2019-03-30T22:36:24.008Z,99.90
2019-03-30T22:38:53.751Z,99.90
2019-03-30T22:41:23.504Z,99.90
2019-03-30T22:43:53.243Z,99.90
2019-03-30T22:46:23.007Z,99.90
2019-03-30T22:48:52.733Z,99.90
2019-03-30T22:51:22.491Z,99.90
2019-03-30T22:53:52.347Z,99.90
2019-03-30T22:56:21.999Z,99.90
2019-03-30T22:58:51.730Z,99.90
2019-03-30T23:01:22.676Z,99.90
2019-03-30T23:03:52.526Z,99.90
2019-03-30T23:06:22.234Z,99.90
2019-03-30T23:08:52.054Z,99.90
2019-03-30T23:11:21.819Z,99.90
2019-03-30T23:13:51.566Z,99.90
2019-03-30T23:16:21.350Z,99.90
2019-03-30T23:18:51.074Z,99.90
2019-03-30T23:21:20.802Z,99.90
2019-03-30T23:23:50.575Z,99.90
2019-03-30T23:26:20.315Z,99.90
2019-03-30T23:28:50.023Z,99.90
2019-03-30T23:31:19.797Z,99.90
2019-03-30T23:33:49.540Z,99.90
2019-03-30T23:36:19.300Z,99.90
2019-03-30T23:38:48.927Z,99.90
2019-03-30T23:41:18.678Z,99.90
2019-03-30T23:43:48.434Z,99.90
2019-03-30T23:46:18.183Z,99.90
2019-03-30T23:48:47.975Z,99.90
2019-03-30T23:51:17.731Z,99.90
2019-03-30T23:53:47.454Z,99.90
2019-03-30T23:56:23.124Z,99.90
2019-03-30T23:58:53.203Z,99.90
